N80135 PHOG-PHLI
Flight info
| Callsign | N80135 |
|---|---|
| Flight time | N/A |
| Altitude | 6000 |
| Route | BEACH4 LNY V16 NAPUA LIH |
| Aircraft | DA62/L-SDFGRY/C |
Departure
| Time | 2026-04-21 21:45 |
|---|---|
| Airport | Kahului International Airport (PHOG) |
Arrival
| Time | N/A |
|---|---|
| Airport | Lihue Airport (PHLI) |
| Time | Latitude | Longitude | Altitude | Speed | Heading |
|---|---|---|---|---|---|
| 2026-04-21 21:34 | 20.89991 | -156.42642 | 26 ft | 0 kts | 153° |
| 2026-04-21 21:41 | 20.89970 | -156.42674 | 27 ft | 7 kts | 250° |
| 2026-04-21 21:41 | 20.89944 | -156.42720 | 28 ft | 11 kts | 213° |
| 2026-04-21 21:42 | 20.89890 | -156.42762 | 29 ft | 8 kts | 214° |
| 2026-04-21 21:42 | 20.89833 | -156.42805 | 31 ft | 21 kts | 216° |
| 2026-04-21 21:42 | 20.89692 | -156.42910 | 35 ft | 23 kts | 216° |
| 2026-04-21 21:42 | 20.89640 | -156.42980 | 37 ft | 8 kts | 339° |
| 2026-04-21 21:43 | 20.89727 | -156.43063 | 34 ft | 23 kts | 305° |
| 2026-04-21 21:43 | 20.89786 | -156.43209 | 32 ft | 23 kts | 270° |
| 2026-04-21 21:43 | 20.89788 | -156.43385 | 27 ft | 23 kts | 270° |
| 2026-04-21 21:43 | 20.89753 | -156.43545 | 27 ft | 21 kts | 246° |
| 2026-04-21 21:44 | 20.89695 | -156.43684 | 27 ft | 20 kts | 242° |
| 2026-04-21 21:44 | 20.89720 | -156.43789 | 26 ft | 17 kts | 338° |
| 2026-04-21 21:44 | 20.89871 | -156.43593 | 25 ft | 62 kts | 64° |
| 2026-04-21 21:44 | 20.90101 | -156.43012 | 74 ft | 100 kts | 62° |
| 2026-04-21 21:45 | 20.90436 | -156.42349 | 395 ft | 101 kts | 52° |
| 2026-04-21 21:45 | 20.90842 | -156.41707 | 785 ft | 108 kts | 52° |
| 2026-04-21 21:45 | 20.91226 | -156.40991 | 1027 ft | 115 kts | 74° |
| 2026-04-21 21:45 | 20.90983 | -156.40172 | 1278 ft | 126 kts | 136° |
| 2026-04-21 21:46 | 20.90138 | -156.39977 | 1699 ft | 132 kts | 199° |
| 2026-04-21 21:46 | 20.89315 | -156.40423 | 2094 ft | 134 kts | 208° |
| 2026-04-21 21:46 | 20.88536 | -156.40963 | 2446 ft | 134 kts | 220° |
| 2026-04-21 21:46 | 20.87802 | -156.41587 | 2838 ft | 135 kts | 219° |
| 2026-04-21 21:47 | 20.87064 | -156.42212 | 3199 ft | 136 kts | 219° |
| 2026-04-21 21:47 | 20.86327 | -156.42844 | 3523 ft | 136 kts | 219° |
| 2026-04-21 21:47 | 20.85591 | -156.43480 | 3877 ft | 136 kts | 219° |
| 2026-04-21 21:47 | 20.84852 | -156.44121 | 4200 ft | 137 kts | 219° |
| 2026-04-21 21:48 | 20.84113 | -156.44766 | 4544 ft | 137 kts | 219° |
| 2026-04-21 21:48 | 20.83334 | -156.45360 | 4893 ft | 138 kts | 210° |
| 2026-04-21 21:48 | 20.82471 | -156.45809 | 5243 ft | 138 kts | 204° |
| 2026-04-21 21:48 | 20.81592 | -156.46238 | 5588 ft | 139 kts | 204° |
| 2026-04-21 21:49 | 20.80709 | -156.46666 | 5942 ft | 140 kts | 204° |
| 2026-04-21 21:49 | 20.79755 | -156.47126 | 5998 ft | 161 kts | 204° |
| 2026-04-21 21:49 | 20.78692 | -156.47638 | 6007 ft | 174 kts | 204° |
| 2026-04-21 21:49 | 20.77565 | -156.48181 | 6009 ft | 181 kts | 204° |
| 2026-04-21 21:50 | 20.76421 | -156.48733 | 6005 ft | 185 kts | 204° |
| 2026-04-21 21:50 | 20.75242 | -156.49301 | 6008 ft | 187 kts | 204° |
| 2026-04-21 21:50 | 20.74054 | -156.49874 | 6003 ft | 188 kts | 204° |
| 2026-04-21 21:50 | 20.72862 | -156.50449 | 6004 ft | 188 kts | 204° |
| 2026-04-21 21:51 | 20.71718 | -156.51062 | 5987 ft | 165 kts | 219° |
| 2026-04-21 21:51 | 20.71184 | -156.51906 | 5974 ft | 117 kts | 233° |
| 2026-04-21 21:51 | 20.70831 | -156.52551 | 5835 ft | 97 kts | 266° |
| 2026-04-21 21:51 | 20.70767 | -156.53244 | 5654 ft | 88 kts | 264° |
| 2026-04-21 21:52 | 20.70705 | -156.53859 | 5476 ft | 81 kts | 264° |
| 2026-04-21 21:52 | 20.70641 | -156.54487 | 5631 ft | 90 kts | 264° |
| 2026-04-21 21:52 | 20.70567 | -156.55231 | 5822 ft | 112 kts | 264° |
| 2026-04-21 21:52 | 20.70477 | -156.56131 | 5993 ft | 132 kts | 264° |
| 2026-04-21 21:53 | 20.70372 | -156.57200 | 6012 ft | 156 kts | 264° |
| 2026-04-21 21:53 | 20.70251 | -156.58417 | 6005 ft | 172 kts | 264° |
| 2026-04-21 21:53 | 20.70122 | -156.59719 | 5999 ft | 180 kts | 264° |
| 2026-04-21 21:53 | 20.69987 | -156.61064 | 5999 ft | 184 kts | 264° |
| 2026-04-21 21:54 | 20.69850 | -156.62430 | 5998 ft | 186 kts | 264° |
| 2026-04-21 21:54 | 20.69713 | -156.63807 | 5995 ft | 187 kts | 264° |
| 2026-04-21 21:54 | 20.69574 | -156.65190 | 5995 ft | 188 kts | 264° |
| 2026-04-21 21:54 | 20.69436 | -156.66576 | 6001 ft | 188 kts | 264° |
| 2026-04-21 21:55 | 20.69296 | -156.67965 | 6012 ft | 188 kts | 264° |
| 2026-04-21 21:55 | 20.69155 | -156.69354 | 6007 ft | 188 kts | 264° |
| 2026-04-21 21:55 | 20.69012 | -156.70743 | 6020 ft | 188 kts | 264° |
| 2026-04-21 21:55 | 20.68868 | -156.72131 | 6017 ft | 188 kts | 264° |
| 2026-04-21 21:56 | 20.68723 | -156.73521 | 6017 ft | 188 kts | 264° |
| 2026-04-21 21:56 | 20.68579 | -156.74910 | 6022 ft | 188 kts | 264° |
| 2026-04-21 21:56 | 20.68434 | -156.76300 | 6026 ft | 188 kts | 264° |
| 2026-04-21 21:56 | 20.68446 | -156.77683 | 6027 ft | 187 kts | 288° |
| 2026-04-21 21:57 | 20.69121 | -156.78855 | 6034 ft | 186 kts | 308° |
| 2026-04-21 21:57 | 20.69920 | -156.79941 | 6043 ft | 186 kts | 309° |
| 2026-04-21 21:57 | 20.70732 | -156.81020 | 6039 ft | 186 kts | 309° |
| 2026-04-21 21:57 | 20.71545 | -156.82099 | 6045 ft | 187 kts | 309° |
| 2026-04-21 21:58 | 20.72360 | -156.83179 | 6055 ft | 187 kts | 309° |
| 2026-04-21 21:58 | 20.73175 | -156.84261 | 6057 ft | 187 kts | 309° |
| 2026-04-21 21:58 | 20.73992 | -156.85345 | 6060 ft | 187 kts | 309° |
| 2026-04-21 21:58 | 20.74670 | -156.86519 | 6062 ft | 188 kts | 287° |
| 2026-04-21 21:59 | 20.74915 | -156.87888 | 6049 ft | 188 kts | 280° |
| 2026-04-21 21:59 | 20.75121 | -156.89266 | 6060 ft | 188 kts | 279° |
| 2026-04-21 21:59 | 20.75322 | -156.90649 | 6065 ft | 188 kts | 279° |
| 2026-04-21 21:59 | 20.75523 | -156.92033 | 6061 ft | 189 kts | 279° |
| 2026-04-21 22:00 | 20.75721 | -156.93404 | 6057 ft | 190 kts | 279° |
| 2026-04-21 22:00 | 20.75922 | -156.94799 | 6066 ft | 190 kts | 279° |
| 2026-04-21 22:00 | 20.76124 | -156.96194 | 6065 ft | 190 kts | 279° |
| 2026-04-21 22:00 | 20.76356 | -156.97589 | 6060 ft | 191 kts | 284° |
| 2026-04-21 22:01 | 20.76722 | -156.98954 | 6055 ft | 191 kts | 287° |
| 2026-04-21 22:01 | 20.77102 | -157.00309 | 6057 ft | 189 kts | 287° |
| 2026-04-21 22:01 | 20.77483 | -157.01652 | 6054 ft | 188 kts | 287° |
| 2026-04-21 22:01 | 20.77860 | -157.02989 | 6049 ft | 188 kts | 287° |
| 2026-04-21 22:02 | 20.78295 | -157.04302 | 6040 ft | 187 kts | 292° |
| 2026-04-21 22:02 | 20.78775 | -157.05594 | 6039 ft | 187 kts | 292° |
| 2026-04-21 22:02 | 20.79260 | -157.06885 | 6038 ft | 187 kts | 292° |
| 2026-04-21 22:02 | 20.79745 | -157.08175 | 6033 ft | 187 kts | 292° |
| 2026-04-21 22:03 | 20.80230 | -157.09465 | 6038 ft | 187 kts | 292° |
| 2026-04-21 22:03 | 20.80714 | -157.10753 | 6026 ft | 187 kts | 292° |
| 2026-04-21 22:03 | 20.81199 | -157.12044 | 6028 ft | 187 kts | 292° |
| 2026-04-21 22:03 | 20.81683 | -157.13333 | 6026 ft | 187 kts | 292° |
| 2026-04-21 22:04 | 20.82167 | -157.14622 | 6018 ft | 187 kts | 292° |
| 2026-04-21 22:04 | 20.82651 | -157.15910 | 6019 ft | 187 kts | 292° |
| 2026-04-21 22:04 | 20.83136 | -157.17199 | 6010 ft | 187 kts | 292° |
| 2026-04-21 22:04 | 20.83622 | -157.18487 | 6007 ft | 187 kts | 292° |
| 2026-04-21 22:05 | 20.84108 | -157.19776 | 6005 ft | 187 kts | 292° |
| 2026-04-21 22:05 | 20.84593 | -157.21064 | 6001 ft | 187 kts | 292° |
| 2026-04-21 22:05 | 20.85079 | -157.22352 | 6003 ft | 187 kts | 292° |
| 2026-04-21 22:05 | 20.85566 | -157.23638 | 6003 ft | 187 kts | 292° |
| 2026-04-21 22:06 | 20.86053 | -157.24926 | 5991 ft | 187 kts | 292° |
| 2026-04-21 22:06 | 20.86542 | -157.26212 | 5993 ft | 187 kts | 292° |
| 2026-04-21 22:06 | 20.87029 | -157.27498 | 5975 ft | 187 kts | 292° |
| 2026-04-21 22:06 | 20.87421 | -157.28524 | 4140 ft | 16 kts | 286° |
| 2026-04-21 22:07 | 20.87492 | -157.28660 | 2737 ft | 0 kts | 300° |